AFL1947 UAAA-UUEE
Flight info
| Callsign | AFL1947 |
|---|---|
| Flight time | N/A |
| Altitude | 32000 |
| Route | TIPSA1A TIPSA M610 TOMGO L147 EKTOB M199 MULTA/K0841F340 M162 PODUT T750 OKSUD T787 OTKOL T784 LARNO T291 URIDU L158 DIMGI DIMGI3W |
| Aircraft | A321/M-SDE3FGHIRWY/LB1 |
Departure
| Time | 2026-04-23 10:41 |
|---|---|
| Airport | Almaty International Airport (UAAA) |
Arrival
| Time | N/A |
|---|---|
| Airport | Sheremetyevo International Airport (UUEE) |
| Time | Latitude | Longitude | Altitude | Speed | Heading |
|---|---|---|---|---|---|
| 2026-04-23 10:34 | 43.35022 | 77.03096 | 2227 ft | 14 kts | 55° |
| 2026-04-23 10:34 | 43.35090 | 77.03232 | 2224 ft | 20 kts | 55° |
| 2026-04-23 10:35 | 43.35185 | 77.03420 | 2226 ft | 25 kts | 55° |
| 2026-04-23 10:35 | 43.35280 | 77.03609 | 2223 ft | 24 kts | 56° |
| 2026-04-23 10:35 | 43.35371 | 77.03795 | 2224 ft | 23 kts | 56° |
| 2026-04-23 10:35 | 43.35471 | 77.04000 | 2222 ft | 26 kts | 56° |
| 2026-04-23 10:36 | 43.35569 | 77.04201 | 2222 ft | 24 kts | 56° |
| 2026-04-23 10:36 | 43.35657 | 77.04381 | 2224 ft | 21 kts | 55° |
| 2026-04-23 10:36 | 43.35755 | 77.04577 | 2224 ft | 28 kts | 55° |
| 2026-04-23 10:36 | 43.35863 | 77.04793 | 2222 ft | 27 kts | 55° |
| 2026-04-23 10:37 | 43.35964 | 77.04994 | 2223 ft | 24 kts | 55° |
| 2026-04-23 10:37 | 43.36069 | 77.05203 | 2224 ft | 27 kts | 56° |
| 2026-04-23 10:37 | 43.36169 | 77.05404 | 2223 ft | 24 kts | 56° |
| 2026-04-23 10:37 | 43.36253 | 77.05574 | 2224 ft | 20 kts | 56° |
| 2026-04-23 10:38 | 43.36326 | 77.05722 | 2224 ft | 18 kts | 56° |
| 2026-04-23 10:38 | 43.36397 | 77.05867 | 2223 ft | 20 kts | 56° |
| 2026-04-23 10:38 | 43.36479 | 77.06031 | 2223 ft | 18 kts | 56° |
| 2026-04-23 10:38 | 43.36472 | 77.06159 | 2226 ft | 11 kts | 132° |
| 2026-04-23 10:39 | 43.36420 | 77.06197 | 2227 ft | 7 kts | 168° |
| 2026-04-23 10:39 | 43.36356 | 77.06193 | 2228 ft | 11 kts | 195° |
| 2026-04-23 10:39 | 43.36302 | 77.06140 | 2229 ft | 7 kts | 230° |
| 2026-04-23 10:39 | 43.36293 | 77.06121 | 2227 ft | 0 kts | 235° |
| 2026-04-23 10:40 | 43.36265 | 77.06066 | 2227 ft | 30 kts | 235° |
| 2026-04-23 10:40 | 43.36015 | 77.05563 | 2232 ft | 95 kts | 236° |
| 2026-04-23 10:40 | 43.35542 | 77.04604 | 2229 ft | 146 kts | 236° |
| 2026-04-23 10:40 | 43.35121 | 77.03763 | 2227 ft | 174 kts | 236° |
| 2026-04-23 10:41 | 43.34152 | 77.01797 | 2759 ft | 188 kts | 236° |
| 2026-04-23 10:41 | 43.33428 | 77.00268 | 3370 ft | 192 kts | 240° |
| 2026-04-23 10:41 | 43.32694 | 76.98668 | 3551 ft | 207 kts | 240° |
| 2026-04-23 10:41 | 43.31899 | 76.96901 | 3580 ft | 228 kts | 241° |
| 2026-04-23 10:42 | 43.31322 | 76.95627 | 3575 ft | 246 kts | 241° |
| 2026-04-23 10:42 | 43.30742 | 76.92502 | 3925 ft | 262 kts | 278° |
| 2026-04-23 10:42 | 43.31076 | 76.90914 | 4294 ft | 264 kts | 298° |
| 2026-04-23 10:42 | 43.32296 | 76.89051 | 4916 ft | 268 kts | 328° |
| 2026-04-23 10:43 | 43.34636 | 76.87789 | 5815 ft | 270 kts | 340° |
| 2026-04-23 10:43 | 43.35820 | 76.87266 | 6312 ft | 271 kts | 340° |
| 2026-04-23 10:43 | 43.37623 | 76.86469 | 6923 ft | 274 kts | 340° |
| 2026-04-23 10:43 | 43.39445 | 76.85663 | 7547 ft | 275 kts | 340° |
| 2026-04-23 10:44 | 43.41258 | 76.84823 | 8142 ft | 276 kts | 336° |
| 2026-04-23 10:44 | 43.42999 | 76.83667 | 8674 ft | 280 kts | 329° |
| 2026-04-23 10:44 | 43.44643 | 76.82217 | 9196 ft | 282 kts | 316° |
| 2026-04-23 10:44 | 43.45923 | 76.80187 | 9721 ft | 283 kts | 301° |
| 2026-04-23 10:45 | 43.46798 | 76.77763 | 10214 ft | 284 kts | 289° |
| 2026-04-23 10:45 | 43.47531 | 76.75140 | 10391 ft | 301 kts | 290° |
| 2026-04-23 10:45 | 43.48334 | 76.72387 | 10511 ft | 318 kts | 291° |
| 2026-04-23 10:45 | 43.49183 | 76.69528 | 10633 ft | 334 kts | 291° |
| 2026-04-23 10:46 | 43.50088 | 76.66504 | 10825 ft | 348 kts | 291° |
| 2026-04-23 10:46 | 43.51020 | 76.63390 | 11231 ft | 354 kts | 291° |
| 2026-04-23 10:46 | 43.51958 | 76.60238 | 11707 ft | 357 kts | 290° |
| 2026-04-23 10:46 | 43.52901 | 76.57047 | 12249 ft | 361 kts | 290° |
| 2026-04-23 10:47 | 43.53849 | 76.53823 | 12827 ft | 364 kts | 290° |
| 2026-04-23 10:47 | 43.54798 | 76.50566 | 13348 ft | 367 kts | 289° |
| 2026-04-23 10:47 | 43.55752 | 76.47280 | 13840 ft | 370 kts | 289° |
| 2026-04-23 10:47 | 43.56708 | 76.43982 | 14280 ft | 372 kts | 289° |
| 2026-04-23 10:48 | 43.57677 | 76.40639 | 14788 ft | 374 kts | 289° |
| 2026-04-23 10:48 | 43.58644 | 76.37305 | 15305 ft | 376 kts | 289° |
| 2026-04-23 10:48 | 43.59574 | 76.33925 | 15804 ft | 377 kts | 284° |
| 2026-04-23 10:48 | 43.60113 | 76.30396 | 16271 ft | 374 kts | 273° |
| 2026-04-23 10:49 | 43.60294 | 76.26827 | 16747 ft | 373 kts | 271° |
| 2026-04-23 10:49 | 43.60455 | 76.23292 | 17179 ft | 374 kts | 271° |
| 2026-04-23 10:49 | 43.60621 | 76.19697 | 17607 ft | 376 kts | 271° |
| 2026-04-23 10:49 | 43.60790 | 76.16091 | 18017 ft | 378 kts | 271° |
| 2026-04-23 10:50 | 43.60960 | 76.12468 | 18402 ft | 380 kts | 271° |
| 2026-04-23 10:50 | 43.61130 | 76.08818 | 18723 ft | 382 kts | 271° |
| 2026-04-23 10:50 | 43.61300 | 76.05144 | 19063 ft | 384 kts | 271° |
| 2026-04-23 10:50 | 43.61470 | 76.01457 | 19406 ft | 385 kts | 271° |
| 2026-04-23 10:51 | 43.61640 | 75.97759 | 19746 ft | 387 kts | 271° |
| 2026-04-23 10:51 | 43.61809 | 75.94051 | 20092 ft | 388 kts | 271° |
| 2026-04-23 10:51 | 43.61978 | 75.90317 | 20418 ft | 390 kts | 270° |
| 2026-04-23 10:51 | 43.62147 | 75.86571 | 20756 ft | 391 kts | 270° |
| 2026-04-23 10:52 | 43.62314 | 75.82811 | 21086 ft | 393 kts | 270° |
| 2026-04-23 10:52 | 43.62482 | 75.79039 | 21410 ft | 394 kts | 270° |
| 2026-04-23 10:52 | 43.62647 | 75.75263 | 21767 ft | 395 kts | 270° |
| 2026-04-23 10:52 | 43.62810 | 75.71467 | 22108 ft | 397 kts | 270° |
| 2026-04-23 10:53 | 43.62973 | 75.67665 | 22439 ft | 398 kts | 270° |
| 2026-04-23 10:53 | 43.63136 | 75.63843 | 22772 ft | 399 kts | 270° |
| 2026-04-23 10:53 | 43.63297 | 75.60007 | 23103 ft | 400 kts | 270° |
| 2026-04-23 10:53 | 43.63455 | 75.56173 | 23428 ft | 402 kts | 270° |
| 2026-04-23 10:54 | 43.63614 | 75.52309 | 23725 ft | 403 kts | 270° |
| 2026-04-23 10:54 | 43.63775 | 75.48442 | 24000 ft | 404 kts | 270° |
| 2026-04-23 10:54 | 43.63934 | 75.44578 | 24273 ft | 405 kts | 270° |
| 2026-04-23 10:54 | 43.64091 | 75.40689 | 24540 ft | 406 kts | 270° |
| 2026-04-23 10:55 | 43.64246 | 75.36790 | 24772 ft | 407 kts | 270° |
| 2026-04-23 10:55 | 43.64400 | 75.32890 | 25024 ft | 408 kts | 270° |
| 2026-04-23 10:55 | 43.64554 | 75.29008 | 25287 ft | 409 kts | 269° |
| 2026-04-23 10:55 | 43.64712 | 75.25035 | 25553 ft | 410 kts | 269° |
| 2026-04-23 10:56 | 43.64867 | 75.21142 | 25794 ft | 411 kts | 269° |
| 2026-04-23 10:56 | 43.65022 | 75.17158 | 26086 ft | 411 kts | 269° |
| 2026-04-23 10:56 | 43.65173 | 75.13221 | 26373 ft | 411 kts | 269° |
| 2026-04-23 10:56 | 43.65318 | 75.09336 | 26616 ft | 411 kts | 269° |
| 2026-04-23 10:57 | 43.65463 | 75.05380 | 26849 ft | 412 kts | 269° |
| 2026-04-23 10:57 | 43.65606 | 75.01403 | 26989 ft | 416 kts | 268° |
| 2026-04-23 10:57 | 43.65750 | 74.97407 | 27189 ft | 418 kts | 268° |
| 2026-04-23 10:57 | 43.65895 | 74.93387 | 27419 ft | 419 kts | 268° |
| 2026-04-23 10:58 | 43.66040 | 74.89364 | 27639 ft | 420 kts | 268° |
| 2026-04-23 10:58 | 43.66183 | 74.85330 | 27854 ft | 421 kts | 268° |
| 2026-04-23 10:58 | 43.66323 | 74.81274 | 28084 ft | 422 kts | 268° |
| 2026-04-23 10:58 | 43.66461 | 74.77231 | 28415 ft | 420 kts | 268° |
| 2026-04-23 10:59 | 43.66599 | 74.73216 | 28726 ft | 418 kts | 268° |
| 2026-04-23 10:59 | 43.66737 | 74.69210 | 29035 ft | 417 kts | 268° |
| 2026-04-23 10:59 | 43.66872 | 74.65218 | 29299 ft | 416 kts | 268° |
| 2026-04-23 10:59 | 43.67005 | 74.61226 | 29610 ft | 415 kts | 267° |
| 2026-04-23 11:00 | 43.67136 | 74.57250 | 29929 ft | 413 kts | 267° |
| 2026-04-23 11:00 | 43.67266 | 74.53297 | 30232 ft | 411 kts | 267° |
| 2026-04-23 11:00 | 43.67397 | 74.49353 | 30504 ft | 410 kts | 267° |
| 2026-04-23 11:00 | 43.67526 | 74.45429 | 30759 ft | 408 kts | 267° |
| 2026-04-23 11:01 | 43.67651 | 74.41531 | 31018 ft | 406 kts | 267° |
| 2026-04-23 11:01 | 43.67775 | 74.37639 | 31319 ft | 404 kts | 267° |
| 2026-04-23 11:01 | 43.67897 | 74.33769 | 31619 ft | 402 kts | 266° |
| 2026-04-23 11:01 | 43.68016 | 74.29908 | 31843 ft | 401 kts | 266° |
| 2026-04-23 11:02 | 43.68132 | 74.26061 | 32033 ft | 400 kts | 266° |
| 2026-04-23 11:02 | 43.68244 | 74.22239 | 32051 ft | 397 kts | 266° |
| 2026-04-23 11:02 | 43.68468 | 74.14635 | 32052 ft | 396 kts | 266° |
| 2026-04-23 11:03 | 43.68698 | 74.07031 | 32053 ft | 395 kts | 266° |
| 2026-04-23 11:03 | 43.68926 | 73.99445 | 32058 ft | 395 kts | 265° |
| 2026-04-23 11:04 | 43.69145 | 73.91884 | 32035 ft | 396 kts | 265° |
| 2026-04-23 11:04 | 43.69354 | 73.84233 | 32031 ft | 396 kts | 265° |
| 2026-04-23 11:05 | 43.69944 | 73.76625 | 32038 ft | 407 kts | 278° |
| 2026-04-23 11:05 | 43.70941 | 73.72955 | 32027 ft | 419 kts | 288° |
| 2026-04-23 11:05 | 43.72509 | 73.69440 | 32028 ft | 431 kts | 297° |
| 2026-04-23 11:06 | 43.77877 | 73.59497 | 32015 ft | 432 kts | 296° |
| 2026-04-23 11:07 | 43.81446 | 73.52780 | 32039 ft | 434 kts | 296° |
| 2026-04-23 11:07 | 43.85032 | 73.46056 | 32031 ft | 434 kts | 296° |
| 2026-04-23 11:08 | 43.88630 | 73.39324 | 32024 ft | 433 kts | 296° |
| 2026-04-23 11:08 | 43.92205 | 73.32601 | 32016 ft | 433 kts | 296° |
| 2026-04-23 11:09 | 43.95773 | 73.25870 | 32007 ft | 433 kts | 296° |
| 2026-04-23 11:09 | 43.99338 | 73.19131 | 32001 ft | 433 kts | 296° |
| 2026-04-23 11:10 | 44.02892 | 73.12383 | 32020 ft | 433 kts | 296° |
| 2026-04-23 11:10 | 44.06448 | 73.05631 | 32012 ft | 433 kts | 296° |
| 2026-04-23 11:11 | 44.10003 | 72.98875 | 32012 ft | 433 kts | 296° |
| 2026-04-23 11:11 | 44.13544 | 72.92107 | 32035 ft | 432 kts | 296° |
| 2026-04-23 11:12 | 44.17069 | 72.85326 | 32021 ft | 432 kts | 296° |
| 2026-04-23 11:12 | 44.20570 | 72.78606 | 32019 ft | 431 kts | 296° |
| 2026-04-23 11:13 | 44.24090 | 72.71828 | 32008 ft | 431 kts | 296° |
| 2026-04-23 11:13 | 44.27602 | 72.65049 | 32023 ft | 430 kts | 296° |
| 2026-04-23 11:14 | 44.31109 | 72.58273 | 32011 ft | 430 kts | 296° |
| 2026-04-23 11:14 | 44.34603 | 72.51516 | 32016 ft | 429 kts | 296° |
| 2026-04-23 11:15 | 44.38089 | 72.44748 | 32005 ft | 429 kts | 296° |
| 2026-04-23 11:15 | 44.41571 | 72.37974 | 32030 ft | 429 kts | 296° |
| 2026-04-23 11:16 | 44.45046 | 72.31205 | 32018 ft | 428 kts | 296° |
| 2026-04-23 11:16 | 44.48499 | 72.24461 | 31998 ft | 428 kts | 296° |
| 2026-04-23 11:17 | 44.51971 | 72.17666 | 31993 ft | 428 kts | 296° |
| 2026-04-23 11:17 | 44.55432 | 72.10863 | 32024 ft | 428 kts | 296° |
| 2026-04-23 11:18 | 44.58887 | 72.04070 | 32004 ft | 428 kts | 296° |
| 2026-04-23 11:18 | 44.62340 | 71.97258 | 32017 ft | 428 kts | 296° |
| 2026-04-23 11:19 | 44.65786 | 71.90441 | 32001 ft | 428 kts | 296° |
| 2026-04-23 11:19 | 44.69238 | 71.83618 | 32002 ft | 428 kts | 296° |
| 2026-04-23 11:20 | 44.72675 | 71.76798 | 32014 ft | 427 kts | 296° |
| 2026-04-23 11:20 | 44.76107 | 71.69967 | 32003 ft | 427 kts | 296° |
| 2026-04-23 11:21 | 44.79528 | 71.63138 | 32006 ft | 427 kts | 296° |
| 2026-04-23 11:21 | 44.82945 | 71.56293 | 31999 ft | 427 kts | 296° |
| 2026-04-23 11:22 | 44.86358 | 71.49450 | 32028 ft | 427 kts | 296° |
| 2026-04-23 11:22 | 44.89769 | 71.42592 | 32003 ft | 426 kts | 296° |
| 2026-04-23 11:23 | 44.93173 | 71.35741 | 32015 ft | 426 kts | 296° |
| 2026-04-23 11:23 | 44.96566 | 71.28893 | 32007 ft | 425 kts | 296° |
| 2026-04-23 11:24 | 44.99946 | 71.22044 | 31997 ft | 425 kts | 296° |
| 2026-04-23 11:24 | 45.03323 | 71.15175 | 32012 ft | 425 kts | 296° |
| 2026-04-23 11:25 | 45.06130 | 71.09480 | 31997 ft | 425 kts | 296° |
| 2026-04-23 11:25 | 45.10046 | 71.01494 | 31985 ft | 425 kts | 296° |
| 2026-04-23 11:26 | 45.13412 | 70.94614 | 31980 ft | 425 kts | 296° |
| 2026-04-23 11:26 | 45.16777 | 70.87731 | 32001 ft | 425 kts | 296° |
| 2026-04-23 11:27 | 45.19584 | 70.81961 | 31994 ft | 425 kts | 296° |
| 2026-04-23 11:27 | 45.22934 | 70.75049 | 31999 ft | 425 kts | 296° |
| 2026-04-23 11:28 | 45.26261 | 70.68182 | 31977 ft | 425 kts | 296° |
| 2026-04-23 11:28 | 45.29628 | 70.61269 | 31973 ft | 426 kts | 296° |
| 2026-04-23 11:29 | 45.32996 | 70.54340 | 31986 ft | 426 kts | 297° |
| 2026-04-23 11:29 | 45.36350 | 70.47395 | 31980 ft | 426 kts | 296° |
| 2026-04-23 11:30 | 45.39698 | 70.40450 | 31978 ft | 426 kts | 296° |
| 2026-04-23 11:30 | 45.43044 | 70.33487 | 31973 ft | 426 kts | 296° |
| 2026-04-23 11:31 | 45.46382 | 70.26508 | 31975 ft | 426 kts | 296° |
| 2026-04-23 11:31 | 45.49714 | 70.19538 | 31970 ft | 426 kts | 296° |
| 2026-04-23 11:32 | 45.53048 | 70.12564 | 31970 ft | 426 kts | 296° |
| 2026-04-23 11:32 | 45.56381 | 70.05556 | 31951 ft | 426 kts | 296° |
| 2026-04-23 11:33 | 45.59708 | 69.98544 | 31954 ft | 427 kts | 296° |
| 2026-04-23 11:33 | 45.63034 | 69.91511 | 31975 ft | 427 kts | 297° |
| 2026-04-23 11:34 | 45.66364 | 69.84458 | 31964 ft | 428 kts | 297° |
| 2026-04-23 11:34 | 45.69694 | 69.77395 | 31964 ft | 428 kts | 297° |
| 2026-04-23 11:35 | 45.73012 | 69.70332 | 31963 ft | 428 kts | 297° |
| 2026-04-23 11:35 | 45.76336 | 69.63245 | 31984 ft | 428 kts | 297° |
| 2026-04-23 11:36 | 45.79654 | 69.56168 | 31979 ft | 428 kts | 297° |
| 2026-04-23 11:36 | 45.82942 | 69.49121 | 31967 ft | 428 kts | 297° |
| 2026-04-23 11:37 | 45.86239 | 69.42021 | 31961 ft | 428 kts | 297° |
| 2026-04-23 11:37 | 45.89541 | 69.34906 | 31963 ft | 428 kts | 297° |
| 2026-04-23 11:38 | 45.92836 | 69.27794 | 31972 ft | 428 kts | 297° |
| 2026-04-23 11:38 | 45.96127 | 69.20669 | 31968 ft | 428 kts | 297° |
| 2026-04-23 11:39 | 45.99410 | 69.13541 | 31968 ft | 427 kts | 297° |
| 2026-04-23 11:39 | 46.02685 | 69.06397 | 31961 ft | 427 kts | 297° |
| 2026-04-23 11:40 | 46.05956 | 68.99252 | 31983 ft | 427 kts | 297° |
| 2026-04-23 11:40 | 46.09218 | 68.92095 | 31984 ft | 427 kts | 297° |
| 2026-04-23 11:41 | 46.12473 | 68.84920 | 31982 ft | 427 kts | 298° |
| 2026-04-23 11:41 | 46.15718 | 68.77756 | 31972 ft | 427 kts | 298° |
| 2026-04-23 11:42 | 46.18960 | 68.70559 | 31956 ft | 428 kts | 297° |
| 2026-04-23 11:42 | 46.22204 | 68.63352 | 31975 ft | 428 kts | 298° |
| 2026-04-23 11:43 | 46.25446 | 68.56129 | 31968 ft | 428 kts | 298° |
| 2026-04-23 11:43 | 46.28676 | 68.48911 | 31967 ft | 428 kts | 298° |
| 2026-04-23 11:44 | 46.31909 | 68.41688 | 31964 ft | 427 kts | 298° |
| 2026-04-23 11:44 | 46.35127 | 68.34464 | 31983 ft | 427 kts | 298° |
| 2026-04-23 11:45 | 46.38349 | 68.27221 | 31972 ft | 428 kts | 298° |
| 2026-04-23 11:45 | 46.41559 | 68.19968 | 31977 ft | 428 kts | 299° |
| 2026-04-23 11:46 | 46.44755 | 68.12745 | 31971 ft | 428 kts | 299° |
| 2026-04-23 11:46 | 46.47974 | 68.05455 | 31973 ft | 429 kts | 299° |
| 2026-04-23 11:47 | 46.51180 | 67.98166 | 31980 ft | 428 kts | 298° |
| 2026-04-23 11:47 | 46.54398 | 67.90819 | 31976 ft | 428 kts | 298° |
| 2026-04-23 11:48 | 46.57539 | 67.83541 | 31980 ft | 428 kts | 298° |
| 2026-04-23 11:48 | 46.60662 | 67.76187 | 31973 ft | 428 kts | 298° |
| 2026-04-23 11:49 | 46.63808 | 67.68768 | 31971 ft | 428 kts | 298° |
| 2026-04-23 11:49 | 46.66948 | 67.61474 | 31991 ft | 428 kts | 298° |
| 2026-04-23 11:50 | 46.70161 | 67.54177 | 31990 ft | 427 kts | 298° |
| 2026-04-23 11:50 | 46.73363 | 67.46880 | 31988 ft | 427 kts | 298° |
| 2026-04-23 11:51 | 46.76543 | 67.39571 | 31986 ft | 427 kts | 298° |
| 2026-04-23 11:51 | 46.79718 | 67.32228 | 31997 ft | 427 kts | 298° |
| 2026-04-23 11:52 | 46.82887 | 67.24904 | 32002 ft | 427 kts | 298° |
| 2026-04-23 11:52 | 46.86047 | 67.17560 | 31997 ft | 426 kts | 298° |
| 2026-04-23 11:53 | 46.89189 | 67.10222 | 31994 ft | 426 kts | 298° |
| 2026-04-23 11:53 | 46.92256 | 67.02877 | 31993 ft | 425 kts | 297° |
| 2026-04-23 11:54 | 46.95306 | 66.95452 | 31989 ft | 425 kts | 297° |
| 2026-04-23 11:54 | 46.98398 | 66.88063 | 31987 ft | 426 kts | 298° |
| 2026-04-23 11:55 | 47.01560 | 66.80655 | 31988 ft | 426 kts | 298° |
| 2026-04-23 11:55 | 47.04671 | 66.73342 | 31987 ft | 426 kts | 298° |
| 2026-04-23 11:56 | 47.07790 | 66.65944 | 31986 ft | 426 kts | 298° |
| 2026-04-23 11:56 | 47.10887 | 66.58558 | 32007 ft | 425 kts | 298° |
| 2026-04-23 11:57 | 47.13979 | 66.51160 | 31998 ft | 424 kts | 298° |
| 2026-04-23 11:57 | 47.17055 | 66.43774 | 31993 ft | 424 kts | 298° |
| 2026-04-23 11:58 | 47.20131 | 66.36396 | 31989 ft | 423 kts | 298° |
| 2026-04-23 11:58 | 47.23201 | 66.29009 | 31984 ft | 423 kts | 298° |
| 2026-04-23 11:59 | 47.26265 | 66.21608 | 31995 ft | 422 kts | 297° |
| 2026-04-23 11:59 | 47.29315 | 66.14230 | 31990 ft | 422 kts | 297° |
| 2026-04-23 12:00 | 47.32356 | 66.06843 | 31986 ft | 421 kts | 297° |
| 2026-04-23 12:00 | 47.35385 | 65.99466 | 31983 ft | 421 kts | 297° |
| 2026-04-23 12:01 | 47.38410 | 65.92073 | 31990 ft | 420 kts | 297° |
| 2026-04-23 12:01 | 47.41425 | 65.84690 | 31992 ft | 420 kts | 298° |
| 2026-04-23 12:02 | 47.44430 | 65.77303 | 31985 ft | 419 kts | 297° |
| 2026-04-23 12:02 | 47.47395 | 65.69955 | 31981 ft | 419 kts | 297° |
| 2026-04-23 12:03 | 47.50389 | 65.62490 | 31977 ft | 419 kts | 297° |
| 2026-04-23 12:03 | 47.53341 | 65.55125 | 31984 ft | 419 kts | 297° |
| 2026-04-23 12:04 | 47.56323 | 65.47665 | 31980 ft | 418 kts | 297° |
| 2026-04-23 12:04 | 47.59284 | 65.40254 | 31982 ft | 418 kts | 297° |
| 2026-04-23 12:05 | 47.62218 | 65.32893 | 31964 ft | 417 kts | 297° |
| 2026-04-23 12:05 | 47.65164 | 65.25484 | 31962 ft | 417 kts | 297° |
| 2026-04-23 12:06 | 47.68096 | 65.18072 | 31974 ft | 417 kts | 297° |
| 2026-04-23 12:06 | 47.72484 | 65.06946 | 31971 ft | 415 kts | 297° |
| 2026-04-23 12:07 | 47.74927 | 65.00741 | 31970 ft | 415 kts | 297° |
| 2026-04-23 12:07 | 47.77840 | 64.93322 | 31966 ft | 415 kts | 297° |
| 2026-04-23 12:08 | 47.80728 | 64.85965 | 31955 ft | 415 kts | 297° |
| 2026-04-23 12:08 | 47.83634 | 64.78557 | 31979 ft | 414 kts | 297° |
| 2026-04-23 12:09 | 47.86527 | 64.71142 | 31976 ft | 413 kts | 297° |
| 2026-04-23 12:09 | 47.89408 | 64.63743 | 31967 ft | 413 kts | 297° |
| 2026-04-23 12:10 | 47.92281 | 64.56335 | 31953 ft | 412 kts | 297° |
| 2026-04-23 12:10 | 47.95155 | 64.48927 | 31949 ft | 412 kts | 297° |
| 2026-04-23 12:11 | 47.98014 | 64.41523 | 31973 ft | 412 kts | 297° |
| 2026-04-23 12:11 | 48.00865 | 64.34112 | 31968 ft | 411 kts | 297° |
| 2026-04-23 12:12 | 48.03712 | 64.26708 | 31961 ft | 411 kts | 297° |
| 2026-04-23 12:12 | 48.06546 | 64.19305 | 31958 ft | 410 kts | 296° |
| 2026-04-23 12:13 | 48.09373 | 64.11897 | 31953 ft | 410 kts | 296° |
| 2026-04-23 12:13 | 48.12175 | 64.04529 | 31968 ft | 410 kts | 296° |
| 2026-04-23 12:14 | 48.14989 | 63.97123 | 31967 ft | 409 kts | 296° |
| 2026-04-23 12:14 | 48.17805 | 63.89710 | 31955 ft | 409 kts | 296° |
| 2026-04-23 12:15 | 48.20608 | 63.82302 | 31946 ft | 409 kts | 296° |
| 2026-04-23 12:15 | 48.23400 | 63.74871 | 31943 ft | 409 kts | 296° |
| 2026-04-23 12:16 | 48.26183 | 63.67441 | 31963 ft | 409 kts | 295° |
| 2026-04-23 12:16 | 48.28962 | 63.60013 | 31960 ft | 408 kts | 295° |
| 2026-04-23 12:17 | 48.31740 | 63.52587 | 31955 ft | 407 kts | 295° |
| 2026-04-23 12:17 | 48.34510 | 63.45155 | 31950 ft | 407 kts | 295° |
| 2026-04-23 12:18 | 48.37268 | 63.37738 | 31939 ft | 407 kts | 295° |
| 2026-04-23 12:18 | 48.40024 | 63.30290 | 31937 ft | 407 kts | 295° |
| 2026-04-23 12:19 | 48.42765 | 63.22854 | 31931 ft | 407 kts | 295° |
| 2026-04-23 12:19 | 48.44142 | 63.19128 | 31931 ft | 407 kts | 295° |